createdAt,value
2023-01-23T00:01:42.414Z,102566.15
2023-01-23T00:04:13.802Z,102568.45
2023-01-23T00:06:43.877Z,102573.02
2023-01-23T00:09:12.459Z,102577.61
2023-01-23T00:11:41.220Z,102580.86
2023-01-23T00:14:11.042Z,102579.42
2023-01-23T00:16:39.805Z,102586.06
2023-01-23T00:19:10.568Z,102585.98
2023-01-23T00:21:39.585Z,102590.19
2023-01-23T00:24:11.997Z,102591.35
2023-01-23T00:26:40.652Z,102588.70
2023-01-23T00:29:09.254Z,102588.14
2023-01-23T00:31:39.812Z,102593.16
2023-01-23T00:34:14.025Z,102590.61
2023-01-23T00:36:44.708Z,102594.00
2023-01-23T00:39:18.412Z,102597.24
2023-01-23T00:41:48.759Z,102595.79
2023-01-23T00:44:17.554Z,102592.59
2023-01-23T00:46:46.738Z,102598.08
2023-01-23T00:49:17.994Z,102603.44
2023-01-23T00:51:46.752Z,102606.14
2023-01-23T00:54:15.305Z,102608.17
2023-01-23T00:56:44.251Z,102606.73
2023-01-23T00:59:12.956Z,102610.16
2023-01-23T01:01:41.657Z,102610.81
2023-01-23T01:04:10.417Z,102611.53
2023-01-23T01:06:39.010Z,102610.91
2023-01-23T01:09:07.677Z,102610.16
2023-01-23T01:11:36.196Z,102607.85
2023-01-23T01:14:05.535Z,102608.65
2023-01-23T01:16:34.478Z,102608.44
2023-01-23T01:19:05.454Z,102611.61
2023-01-23T01:21:36.008Z,102612.95
2023-01-23T01:24:05.469Z,102612.65
2023-01-23T01:26:34.167Z,102612.86
2023-01-23T01:29:03.958Z,102613.36
2023-01-23T01:31:32.621Z,102619.18
2023-01-23T01:34:01.596Z,102618.10
2023-01-23T01:36:30.169Z,102618.04
2023-01-23T01:38:58.808Z,102617.35
2023-01-23T01:41:27.584Z,102619.11
2023-01-23T01:43:57.519Z,102620.52
2023-01-23T01:46:32.557Z,102617.30
2023-01-23T01:49:30.243Z,102627.17
2023-01-23T01:52:08.669Z,102633.35
2023-01-23T01:54:44.750Z,102632.98
2023-01-23T01:57:21.975Z,102636.21
2023-01-23T02:00:04.652Z,102639.23
2023-01-23T02:02:51.544Z,102643.65
2023-01-23T02:05:30.045Z,102645.90
2023-01-23T02:08:44.982Z,102646.42
2023-01-23T02:11:15.379Z,102646.31
2023-01-23T02:13:46.046Z,102647.27
2023-01-23T02:16:27.609Z,102646.67
2023-01-23T02:19:07.541Z,102648.61
2023-01-23T02:21:39.323Z,102652.72
2023-01-23T02:24:23.902Z,102649.98
2023-01-23T02:26:53.682Z,102650.56
2023-01-23T02:29:22.190Z,102650.20
2023-01-23T02:31:56.933Z,102650.23
2023-01-23T02:34:26.268Z,102650.34
2023-01-23T02:36:57.962Z,102651.13
2023-01-23T02:39:27.735Z,102650.50
2023-01-23T02:41:58.821Z,102654.82
2023-01-23T02:44:40.364Z,102657.45
2023-01-23T02:47:12.530Z,102653.67
2023-01-23T02:49:43.055Z,102661.17
2023-01-23T02:52:12.194Z,102662.95
2023-01-23T02:54:40.897Z,102667.72
2023-01-23T02:57:10.199Z,102667.33
2023-01-23T02:59:58.237Z,102664.92
2023-01-23T03:02:27.984Z,102671.42
2023-01-23T03:04:56.847Z,102670.69
2023-01-23T03:07:25.603Z,102673.36
2023-01-23T03:09:54.288Z,102680.66
2023-01-23T03:12:22.812Z,102678.55
2023-01-23T03:14:54.951Z,102680.64
2023-01-23T03:17:23.914Z,102677.17
2023-01-23T03:19:53.663Z,102679.96
2023-01-23T03:22:22.223Z,102684.77
2023-01-23T03:24:51.089Z,102687.04
2023-01-23T03:27:19.650Z,102688.48
2023-01-23T03:30:09.770Z,102687.14
2023-01-23T03:32:38.814Z,102684.09
2023-01-23T03:35:19.964Z,102683.71
2023-01-23T03:37:49.790Z,102685.40
2023-01-23T03:40:43.910Z,102689.98
2023-01-23T03:43:14.694Z,102688.20
2023-01-23T03:45:47.487Z,102686.31
2023-01-23T03:48:16.280Z,102685.13
2023-01-23T03:50:45.822Z,102688.77
2023-01-23T03:53:14.498Z,102689.03
2023-01-23T03:55:47.083Z,102693.30
2023-01-23T03:58:15.971Z,102693.31
2023-01-23T04:00:46.338Z,102691.52
2023-01-23T04:03:15.076Z,102696.05
2023-01-23T04:05:43.791Z,102702.38
2023-01-23T04:08:12.386Z,102700.98
2023-01-23T04:10:40.979Z,102704.66
2023-01-23T04:13:15.325Z,102705.06
2023-01-23T04:15:43.909Z,102706.80
2023-01-23T04:18:12.993Z,102708.83
2023-01-23T04:20:41.530Z,102716.98
2023-01-23T04:23:10.155Z,102718.34
2023-01-23T04:25:38.862Z,102718.50
2023-01-23T04:28:13.815Z,102719.73
2023-01-23T04:30:42.942Z,102721.73
2023-01-23T04:33:22.256Z,102722.35
2023-01-23T04:36:03.720Z,102721.77
2023-01-23T04:38:33.831Z,102722.29
2023-01-23T04:41:27.977Z,102720.99
2023-01-23T04:44:23.038Z,102719.91
2023-01-23T04:47:10.253Z,102723.02
2023-01-23T04:49:38.863Z,102726.79
2023-01-23T04:52:07.382Z,102723.31
2023-01-23T04:54:38.549Z,102723.33
2023-01-23T04:57:07.974Z,102723.23
2023-01-23T04:59:36.678Z,102729.48
2023-01-23T05:02:05.778Z,102735.89
2023-01-23T05:04:40.014Z,102740.24
2023-01-23T05:07:12.136Z,102752.53
2023-01-23T05:09:43.742Z,102750.27
2023-01-23T05:12:14.878Z,102751.41
2023-01-23T05:14:43.626Z,102753.55
2023-01-23T05:17:12.283Z,102759.00
2023-01-23T05:19:44.454Z,102759.13
2023-01-23T05:22:13.509Z,102766.83
2023-01-23T05:24:43.586Z,102768.26
2023-01-23T05:27:13.394Z,102772.89
2023-01-23T05:29:43.386Z,102776.11
2023-01-23T05:32:22.052Z,102777.48
2023-01-23T05:35:40.330Z,102771.59
2023-01-23T05:38:12.587Z,102775.28
2023-01-23T05:40:41.270Z,102777.99
2023-01-23T05:43:16.792Z,102778.92
2023-01-23T05:45:48.243Z,102784.29
2023-01-23T05:48:34.396Z,102783.79
2023-01-23T05:51:04.226Z,102786.98
2023-01-23T05:53:33.021Z,102796.06
2023-01-23T05:56:08.713Z,102797.56
2023-01-23T05:58:44.118Z,102797.08
2023-01-23T06:01:22.858Z,102800.11
2023-01-23T06:04:10.091Z,102804.30
2023-01-23T06:06:45.142Z,102808.83
2023-01-23T06:09:13.968Z,102811.95
2023-01-23T06:11:42.607Z,102817.75
2023-01-23T06:14:11.279Z,102819.60
2023-01-23T06:16:39.988Z,102817.92
2023-01-23T06:19:10.334Z,102820.30
2023-01-23T06:21:39.205Z,102821.77
2023-01-23T06:24:08.358Z,102827.85
2023-01-23T06:26:36.896Z,102827.16
2023-01-23T06:29:05.821Z,102831.96
2023-01-23T06:31:34.622Z,102836.73
2023-01-23T06:34:04.004Z,102841.27
2023-01-23T06:36:37.860Z,102845.09
2023-01-23T06:39:07.606Z,102846.27
2023-01-23T06:41:42.259Z,102845.45
2023-01-23T06:44:12.310Z,102844.69
2023-01-23T06:46:41.074Z,102845.20
2023-01-23T06:49:10.453Z,102849.65
2023-01-23T06:51:39.103Z,102850.30
2023-01-23T06:54:09.653Z,102855.52
2023-01-23T06:56:38.430Z,102859.39
2023-01-23T06:59:08.121Z,102859.95
2023-01-23T07:01:37.003Z,102865.60
2023-01-23T07:04:48.583Z,102861.90
2023-01-23T07:07:17.257Z,102862.30
2023-01-23T07:09:47.257Z,102858.88
2023-01-23T07:12:26.478Z,102859.44
2023-01-23T07:14:55.146Z,102862.91
2023-01-23T07:17:27.630Z,102862.35
2023-01-23T07:19:56.647Z,102863.45
2023-01-23T07:22:25.332Z,102865.93
2023-01-23T07:24:53.842Z,102875.64
2023-01-23T07:27:22.466Z,102875.33
2023-01-23T07:29:51.662Z,102877.84
2023-01-23T07:32:20.378Z,102881.81
2023-01-23T07:34:49.183Z,102881.43
2023-01-23T07:37:17.878Z,102877.18
2023-01-23T07:39:46.541Z,102875.95
2023-01-23T07:42:15.099Z,102879.15
2023-01-23T07:44:43.791Z,102882.45
2023-01-23T07:47:12.524Z,102881.48
2023-01-23T07:49:41.298Z,102884.06
2023-01-23T07:52:10.247Z,102886.04
2023-01-23T07:54:38.794Z,102886.06
2023-01-23T07:57:07.431Z,102891.95
2023-01-23T07:59:36.140Z,102893.03
2023-01-23T08:02:04.872Z,102895.25
2023-01-23T08:04:33.527Z,102896.16
2023-01-23T08:07:02.199Z,102897.63
2023-01-23T08:09:30.837Z,102897.92
2023-01-23T08:11:59.456Z,102901.16
2023-01-23T08:14:28.250Z,102904.11
2023-01-23T08:16:57.081Z,102904.90
2023-01-23T08:19:27.490Z,102905.66
2023-01-23T08:21:56.062Z,102915.76
2023-01-23T08:24:24.724Z,102917.89
2023-01-23T08:26:53.436Z,102926.04
2023-01-23T08:29:22.146Z,102929.22
2023-01-23T08:31:55.106Z,102934.36
2023-01-23T08:34:24.438Z,102934.63
2023-01-23T08:36:53.319Z,102935.19
2023-01-23T08:39:22.129Z,102935.52
2023-01-23T08:41:51.674Z,102934.77
2023-01-23T08:44:20.283Z,102934.22
2023-01-23T08:46:48.921Z,102934.63
2023-01-23T08:49:20.516Z,102937.98
2023-01-23T08:51:49.243Z,102939.77
2023-01-23T08:54:18.016Z,102938.79
2023-01-23T08:56:46.575Z,102937.63
2023-01-23T08:59:15.220Z,102937.49
2023-01-23T09:01:43.909Z,102936.97
2023-01-23T09:04:12.676Z,102938.05
2023-01-23T09:06:41.349Z,102936.31
2023-01-23T09:09:11.936Z,102934.29
2023-01-23T09:11:40.702Z,102937.80
2023-01-23T09:14:09.573Z,102941.35
2023-01-23T09:16:39.413Z,102939.59
2023-01-23T09:19:10.506Z,102939.63
2023-01-23T09:21:39.089Z,102944.98
2023-01-23T09:24:08.833Z,102946.14
2023-01-23T09:26:37.816Z,102952.50
2023-01-23T09:29:07.254Z,102953.95
2023-01-23T09:31:36.855Z,102953.19
2023-01-23T09:34:05.984Z,102952.68
2023-01-23T09:36:42.874Z,102947.33
2023-01-23T09:39:12.708Z,102945.78
2023-01-23T09:41:44.094Z,102945.34
2023-01-23T09:44:17.195Z,102945.89
2023-01-23T09:46:55.324Z,102945.42
2023-01-23T09:50:01.111Z,102941.31
2023-01-23T09:52:36.016Z,102943.80
2023-01-23T09:55:25.941Z,102937.41
2023-01-23T09:58:01.465Z,102932.60
2023-01-23T10:00:33.491Z,102929.49
2023-01-23T10:03:11.668Z,102930.16
2023-01-23T10:06:25.045Z,102927.07
2023-01-23T10:09:24.277Z,102923.27
2023-01-23T10:12:32.769Z,102914.73
2023-01-23T10:16:06.046Z,102904.29
2023-01-23T10:18:46.662Z,102903.50
2023-01-23T10:22:22.377Z,102905.45
2023-01-23T10:24:57.549Z,102905.77
2023-01-23T10:27:44.185Z,102902.75
2023-01-23T10:30:31.387Z,102895.60
2023-01-23T10:33:03.119Z,102892.68
2023-01-23T10:35:40.745Z,102887.59
2023-01-23T10:38:34.926Z,102888.67
2023-01-23T10:41:17.786Z,102886.73
2023-01-23T10:43:57.319Z,102884.14
2023-01-23T10:47:03.905Z,102884.64
2023-01-23T10:49:37.703Z,102886.76
2023-01-23T10:52:30.495Z,102891.08
2023-01-23T10:54:59.168Z,102888.90
2023-01-23T10:57:31.548Z,102884.60
2023-01-23T11:00:20.806Z,102882.14
2023-01-23T11:02:49.436Z,102874.94
2023-01-23T11:05:50.658Z,102869.27
2023-01-23T11:08:37.066Z,102867.83
2023-01-23T11:11:34.770Z,102863.02
2023-01-23T11:14:12.430Z,102858.44
2023-01-23T11:16:41.131Z,102855.55
2023-01-23T11:19:09.735Z,102854.25
2023-01-23T11:21:53.721Z,102853.44
2023-01-23T11:24:27.814Z,102850.68
2023-01-23T11:27:14.985Z,102845.90
2023-01-23T11:30:09.593Z,102838.06
2023-01-23T11:33:04.573Z,102837.38
2023-01-23T11:36:07.288Z,102838.33
2023-01-23T11:38:52.565Z,102843.99
2023-01-23T11:41:31.176Z,102835.75
2023-01-23T11:44:10.020Z,102837.13
2023-01-23T11:46:55.450Z,102839.03
2023-01-23T11:50:00.427Z,102841.01
2023-01-23T11:52:34.863Z,102844.21
2023-01-23T11:55:15.469Z,102837.38
2023-01-23T11:58:14.734Z,102841.64
2023-01-23T12:01:40.208Z,102843.07
2023-01-23T12:04:40.543Z,102838.80
2023-01-23T12:07:23.260Z,102843.33
2023-01-23T12:10:19.938Z,102845.73
2023-01-23T12:12:54.373Z,102850.19
2023-01-23T12:15:50.529Z,102845.63
2023-01-23T12:18:42.689Z,102844.22
2023-01-23T12:21:36.610Z,102844.89
2023-01-23T12:24:38.459Z,102845.88
2023-01-23T12:27:45.647Z,102842.23
2023-01-23T12:30:46.213Z,102841.48
2023-01-23T12:33:50.688Z,102847.08
2023-01-23T12:36:59.501Z,102854.40
2023-01-23T12:40:13.963Z,102857.92
2023-01-23T12:43:01.991Z,102861.90
2023-01-23T12:45:33.200Z,102862.69
2023-01-23T12:48:24.560Z,102861.44
2023-01-23T12:51:41.239Z,102858.89
2023-01-23T12:54:18.763Z,102862.23
2023-01-23T12:56:51.797Z,102867.54
2023-01-23T12:59:23.321Z,102873.54
2023-01-23T13:02:34.432Z,102872.46
2023-01-23T13:05:43.641Z,102875.34
2023-01-23T13:08:43.647Z,102879.92
2023-01-23T13:11:42.729Z,102887.14
2023-01-23T13:14:36.879Z,102882.75
2023-01-23T13:17:59.390Z,102879.63
2023-01-23T13:20:55.983Z,102876.34
2023-01-23T13:23:36.814Z,102881.63
2023-01-23T13:26:20.995Z,102881.59
2023-01-23T13:28:58.771Z,102882.88
2023-01-23T13:31:41.843Z,102882.36
2023-01-23T13:34:17.321Z,102883.31
2023-01-23T13:36:51.581Z,102888.27
2023-01-23T13:39:29.929Z,102890.11
2023-01-23T13:42:14.332Z,102887.64
2023-01-23T13:45:17.151Z,102883.00
2023-01-23T14:24:01.362Z,102872.67
2023-01-23T14:26:35.358Z,102870.67
2023-01-23T14:29:20.976Z,102871.39
2023-01-23T14:31:51.317Z,102878.44
2023-01-23T14:34:22.653Z,102876.29
2023-01-23T14:37:00.890Z,102881.98
2023-01-23T14:39:32.113Z,102880.66
2023-01-23T14:42:03.694Z,102876.81
2023-01-23T14:44:47.279Z,102880.58
2023-01-23T14:47:34.265Z,102881.69
2023-01-23T14:50:09.251Z,102881.62
2023-01-23T14:52:38.162Z,102881.41
2023-01-23T14:55:29.750Z,102879.80
2023-01-23T14:58:01.356Z,102878.09
2023-01-23T15:00:31.531Z,102885.67
2023-01-23T15:03:00.260Z,102889.95
2023-01-23T15:05:29.579Z,102886.10
2023-01-23T15:08:01.569Z,102883.73
2023-01-23T15:10:46.899Z,102882.38
2023-01-23T15:13:25.689Z,102882.81
2023-01-23T15:16:02.485Z,102882.96
2023-01-23T15:18:35.244Z,102884.48
2023-01-23T15:21:07.128Z,102884.66
2023-01-23T15:23:40.968Z,102882.70
2023-01-23T15:26:18.904Z,102882.67
2023-01-23T15:29:04.465Z,102888.06
2023-01-23T15:31:36.713Z,102888.98
2023-01-23T15:34:14.899Z,102892.04
2023-01-23T15:37:20.621Z,102888.02
2023-01-23T15:39:54.744Z,102889.52
2023-01-23T15:42:31.938Z,102889.04
2023-01-23T15:45:02.103Z,102889.69
2023-01-23T15:47:32.056Z,102894.29
2023-01-23T15:50:03.741Z,102900.41
2023-01-23T15:52:48.366Z,102904.30
2023-01-23T15:55:17.192Z,102905.59
2023-01-23T15:57:46.063Z,102907.65
2023-01-23T16:00:18.712Z,102904.90
2023-01-23T16:02:56.156Z,102901.86
2023-01-23T16:05:34.482Z,102901.52
2023-01-23T16:08:05.868Z,102898.80
2023-01-23T16:10:38.390Z,102899.91
2023-01-23T16:13:08.119Z,102903.81
2023-01-23T16:15:39.732Z,102909.58
2023-01-23T16:18:08.358Z,102911.43
2023-01-23T16:20:44.471Z,102912.56
2023-01-23T16:23:24.915Z,102915.52
2023-01-23T16:25:54.062Z,102919.05
2023-01-23T16:28:26.769Z,102916.89
2023-01-23T16:30:55.790Z,102918.27
2023-01-23T16:33:24.560Z,102918.74
2023-01-23T16:35:53.607Z,102918.96
2023-01-23T16:38:28.518Z,102917.65
2023-01-23T16:40:59.958Z,102922.61
2023-01-23T16:43:29.088Z,102924.14
2023-01-23T16:45:57.956Z,102925.98
2023-01-23T16:48:28.310Z,102931.91
2023-01-23T16:51:18.926Z,102932.09
2023-01-23T16:54:00.727Z,102932.73
2023-01-23T16:56:39.457Z,102933.50
2023-01-23T16:59:15.426Z,102930.18
2023-01-23T17:01:47.808Z,102927.26
2023-01-23T17:04:20.359Z,102925.90
2023-01-23T17:06:50.262Z,102928.48
2023-01-23T17:09:18.942Z,102926.07
2023-01-23T17:11:57.264Z,102923.50
2023-01-23T17:14:32.745Z,102928.96
2023-01-23T17:17:07.826Z,102933.66
2023-01-23T17:19:41.653Z,102933.06
2023-01-23T17:22:25.923Z,102939.39
2023-01-23T17:24:54.619Z,102938.13
2023-01-23T17:27:23.389Z,102934.33
2023-01-23T17:29:52.072Z,102938.55
2023-01-23T17:32:41.437Z,102947.01
2023-01-23T17:35:23.044Z,102944.48
2023-01-23T17:37:52.256Z,102943.16
2023-01-23T17:40:21.270Z,102941.17
2023-01-23T17:42:50.123Z,102945.43
2023-01-23T17:45:22.393Z,102944.36
2023-01-23T17:47:53.551Z,102947.20
2023-01-23T17:50:27.254Z,102946.67
2023-01-23T17:52:55.963Z,102952.32
2023-01-23T17:55:32.118Z,102947.57
2023-01-23T17:58:00.964Z,102947.42
2023-01-23T18:00:29.712Z,102947.14
2023-01-23T18:03:00.899Z,102944.80
2023-01-23T18:05:29.707Z,102950.16
2023-01-23T18:07:58.468Z,102952.48
2023-01-23T18:10:29.921Z,102955.12
2023-01-23T18:13:20.622Z,102954.45
2023-01-23T18:16:20.264Z,102959.81
2023-01-23T18:18:57.998Z,102954.83
2023-01-23T18:21:28.305Z,102957.80
2023-01-23T18:23:57.402Z,102957.62
2023-01-23T18:26:55.881Z,102956.70
2023-01-23T18:29:44.091Z,102960.70
2023-01-23T18:32:54.681Z,102957.60
2023-01-23T18:36:13.074Z,102959.00
2023-01-23T18:39:32.368Z,102967.52
2023-01-23T18:42:26.972Z,102966.06
2023-01-23T18:45:05.000Z,102966.63
2023-01-23T18:47:36.246Z,102963.33
2023-01-23T18:50:07.587Z,102960.85
2023-01-23T18:53:14.251Z,102959.43
2023-01-23T18:56:30.769Z,102964.23
2023-01-23T18:59:41.333Z,102966.78
2023-01-23T19:02:15.935Z,102971.95
2023-01-23T19:05:29.423Z,102975.36
2023-01-23T19:08:00.026Z,102976.41
2023-01-23T19:10:48.928Z,102975.30
2023-01-23T19:13:35.652Z,102982.56
2023-01-23T19:16:15.418Z,102982.14
2023-01-23T19:19:07.451Z,102982.34
2023-01-23T19:21:47.187Z,102979.77
2023-01-23T19:24:20.151Z,102973.61
2023-01-23T19:26:50.325Z,102976.88
2023-01-23T19:29:22.434Z,102974.02
2023-01-23T19:32:04.057Z,102979.16
2023-01-23T19:34:34.810Z,102978.52
2023-01-23T19:37:04.432Z,102976.89
2023-01-23T19:39:33.509Z,102978.88
2023-01-23T19:42:03.222Z,102975.33
2023-01-23T19:44:32.232Z,102979.77
2023-01-23T19:47:03.119Z,102980.27
2023-01-23T19:49:31.940Z,102980.10
2023-01-23T19:52:00.851Z,102979.73
2023-01-23T19:54:29.726Z,102978.41
2023-01-23T19:56:58.458Z,102974.50
2023-01-23T19:59:27.437Z,102971.83
2023-01-23T20:01:56.349Z,102974.55
2023-01-23T20:04:25.367Z,102971.02
2023-01-23T20:06:54.204Z,102967.77
2023-01-23T20:09:23.139Z,102967.34
2023-01-23T20:11:52.619Z,102968.12
2023-01-23T20:14:24.045Z,102969.95
2023-01-23T20:16:53.541Z,102962.96
2023-01-23T20:19:22.864Z,102960.91
2023-01-23T20:21:53.545Z,102956.02
2023-01-23T20:24:22.266Z,102960.71
2023-01-23T20:26:51.255Z,102964.51
2023-01-23T20:29:20.326Z,102965.86
2023-01-23T20:31:49.095Z,102966.73
2023-01-23T20:34:17.974Z,102970.56
2023-01-23T20:36:46.824Z,102973.02
2023-01-23T20:39:15.577Z,102970.37
2023-01-23T20:41:44.288Z,102977.05
2023-01-23T20:44:12.943Z,102979.41
2023-01-23T20:46:41.591Z,102980.55
2023-01-23T20:49:14.562Z,102978.02
2023-01-23T20:51:43.368Z,102976.27
2023-01-23T20:54:12.567Z,102968.05
2023-01-23T20:56:41.407Z,102969.85
2023-01-23T20:59:19.607Z,102969.66
2023-01-23T21:02:07.803Z,102964.90
2023-01-23T21:04:38.939Z,102969.94
2023-01-23T21:07:07.789Z,102978.84
2023-01-23T21:09:36.469Z,102980.04
2023-01-23T21:12:09.159Z,102980.80
2023-01-23T21:14:37.738Z,102984.20
2023-01-23T21:17:08.653Z,102989.28
2023-01-23T21:19:39.275Z,102993.23
2023-01-23T21:24:53.433Z,102992.52
2023-01-23T21:27:24.494Z,102989.67
2023-01-23T21:29:54.501Z,102986.84
2023-01-23T21:32:23.306Z,102983.44
2023-01-23T21:34:52.103Z,102980.44
2023-01-23T21:37:21.096Z,102978.64
2023-01-23T21:39:49.768Z,102982.52
2023-01-23T21:42:18.552Z,102977.75
2023-01-23T21:44:48.326Z,102977.08
2023-01-23T21:47:16.929Z,102972.98
2023-01-23T21:49:45.685Z,102967.77
2023-01-23T21:53:49.502Z,102973.50
2023-01-23T21:56:23.102Z,102969.10
2023-01-23T21:58:51.956Z,102968.23
2023-01-23T22:01:33.931Z,102965.67
2023-01-23T22:04:15.577Z,102962.80
2023-01-23T22:06:45.752Z,102957.47
2023-01-23T22:09:18.679Z,102957.39
2023-01-23T22:11:49.153Z,102955.67
2023-01-23T22:14:18.767Z,102958.05
2023-01-23T22:16:49.817Z,102957.21
2023-01-23T22:19:25.097Z,102961.34
2023-01-23T22:21:55.527Z,102962.66
2023-01-23T22:24:24.376Z,102960.78
2023-01-23T22:26:53.282Z,102959.02
2023-01-23T22:29:23.111Z,102959.00
2023-01-23T22:31:52.447Z,102959.97
2023-01-23T22:34:21.496Z,102955.44
2023-01-23T22:36:50.359Z,102953.73
2023-01-23T22:39:20.277Z,102945.88
2023-01-23T22:41:52.670Z,102949.61
2023-01-23T22:44:21.467Z,102949.21
2023-01-23T22:46:51.795Z,102948.33
2023-01-23T22:49:20.714Z,102944.96
2023-01-23T22:51:49.312Z,102946.11
2023-01-23T22:54:18.195Z,102943.15
2023-01-23T22:56:46.941Z,102939.38
2023-01-23T22:59:15.669Z,102940.16
2023-01-23T23:01:44.396Z,102937.84
2023-01-23T23:04:13.035Z,102937.27
2023-01-23T23:06:42.162Z,102939.77
2023-01-23T23:09:10.872Z,102936.69
2023-01-23T23:11:40.153Z,102936.70
2023-01-23T23:14:11.234Z,102934.48
2023-01-23T23:16:41.060Z,102936.21
2023-01-23T23:19:10.217Z,102932.68
2023-01-23T23:21:39.134Z,102938.45
2023-01-23T23:24:12.607Z,102939.20
2023-01-23T23:26:41.544Z,102938.52
2023-01-23T23:29:11.744Z,102938.66
2023-01-23T23:31:41.033Z,102938.85
2023-01-23T23:34:09.941Z,102937.94
2023-01-23T23:36:38.649Z,102934.06
2023-01-23T23:39:07.417Z,102937.04
2023-01-23T23:41:36.301Z,102935.61
2023-01-23T23:44:05.789Z,102935.34
2023-01-23T23:46:34.865Z,102930.66
2023-01-23T23:49:03.726Z,102930.70
2023-01-23T23:51:32.523Z,102931.39
2023-01-23T23:54:01.167Z,102927.60
2023-01-23T23:56:29.898Z,102931.53
2023-01-23T23:58:58.728Z,102929.52
